Time;durP1;ratioP1;P1;durP2;ratioP2;P2;SDS_P1;SDS_P2;PMS_P1;PMS_P2;Temp;Humidity;BMP_temperature;BMP_pressure;BME280_temperature;BME280_humidity;BME280_pressure;Samples;Min_cycle;Max_cycle;Signal;HPM_P1;HPM_P2
2022/04/13 00:01:48;;;;;;;4.23;3.40;;;;;;;12.78;70.62;97771.63;5000492;28;20206;-70
2022/04/13 00:04:15;;;;;;;4.77;3.00;;;;;;;12.78;70.29;97771.63;5000619;28;20211;-70
2022/04/13 00:06:42;;;;;;;4.70;3.23;;;;;;;12.77;70.33;97770.00;5000419;28;20236;-70
2022/04/13 00:09:10;;;;;;;4.50;3.13;;;;;;;12.76;70.49;97770.25;5000318;28;20215;-70
2022/04/13 00:11:37;;;;;;;3.77;3.30;;;;;;;12.74;70.80;97762.47;5000357;28;20624;-70
2022/04/13 00:14:04;;;;;;;3.83;2.93;;;;;;;12.70;71.67;97772.00;5000589;28;20210;-70
2022/04/13 00:16:30;;;;;;;8.43;3.30;;;;;;;12.75;71.85;97773.97;5000119;28;20681;-70
2022/04/13 00:18:57;;;;;;;4.97;3.27;;;;;;;12.66;72.39;97770.84;5000267;28;20670;-70
2022/04/13 00:21:23;;;;;;;5.97;3.53;;;;;;;12.62;72.71;97772.38;5000422;28;20206;-70
2022/04/13 00:23:50;;;;;;;6.37;3.30;;;;;;;12.57;73.29;97774.16;5000156;28;20674;-70
2022/04/13 00:26:16;;;;;;;4.03;3.13;;;;;;;12.54;72.93;97770.13;5000450;28;20297;-70
2022/04/13 00:28:42;;;;;;;5.20;3.03;;;;;;;12.53;72.79;97773.81;5000342;28;20675;-70
2022/04/13 00:31:09;;;;;;;8.03;3.10;;;;;;;12.53;73.01;97779.13;5000137;28;20584;-70
2022/04/13 00:33:35;;;;;;;6.33;3.10;;;;;;;12.48;73.15;97773.72;5000328;28;20214;-70
2022/04/13 00:36:01;;;;;;;4.03;3.00;;;;;;;12.46;73.35;97775.81;5000352;28;20222;-70
2022/04/13 00:38:28;;;;;;;8.33;3.80;;;;;;;12.64;71.24;97777.47;5000331;28;20231;-70
2022/04/13 00:40:55;;;;;;;5.40;3.20;;;;;;;12.59;72.43;97775.53;5000402;28;20206;-70
2022/04/13 00:43:21;;;;;;;4.57;3.30;;;;;;;12.56;72.70;97768.00;5000218;28;20234;-70
2022/04/13 00:45:49;;;;;;;5.83;3.97;;;;;;;12.65;71.24;97779.09;5000018;28;20577;-70
2022/04/13 00:48:33;;;;;;;6.73;4.30;;;;;;;12.71;69.93;97773.63;5000111;28;20226;-70
2022/04/13 00:51:00;;;;;;;8.33;4.53;;;;;;;12.63;70.94;97771.34;5000364;28;20226;-70
2022/04/13 00:53:27;;;;;;;9.03;4.87;;;;;;;12.59;71.29;97772.88;5000073;28;20213;-70
2022/04/13 00:55:59;;;;;;;8.93;4.57;;;;;;;12.57;71.36;97766.94;4999898;28;20211;-70
2022/04/13 00:58:32;;;;;;;8.13;4.47;;;;;;;12.53;71.29;97765.81;5000092;28;20227;-70
2022/04/13 01:01:05;;;;;;;7.47;4.70;;;;;;;12.50;71.11;97763.63;5000101;28;20213;-70
2022/04/13 01:03:36;;;;;;;7.73;4.53;;;;;;;12.46;71.56;97767.81;5000173;28;20210;-70
2022/04/13 01:06:03;;;;;;;5.50;4.50;;;;;;;12.43;71.88;97770.16;4999878;28;20221;-70
2022/04/13 01:08:31;;;;;;;6.43;4.47;;;;;;;12.37;72.85;97771.91;4999746;28;20265;-70
2022/04/13 01:11:00;;;;;;;5.27;4.13;;;;;;;12.33;73.21;97770.75;4998074;28;20266;-70
2022/04/13 01:13:26;;;;;;;7.13;4.10;;;;;;;12.22;73.81;97776.94;4995558;28;20210;-69
2022/04/13 01:15:53;;;;;;;8.33;4.47;;;;;;;12.16;74.45;97779.75;4996879;28;20238;-70
2022/04/13 01:18:20;;;;;;;8.93;3.83;;;;;;;12.07;75.45;97776.59;4996784;28;20233;-70
2022/04/13 01:20:53;;;;;;;7.27;4.70;;;;;;;12.04;74.99;97777.09;4996537;28;20203;-70
2022/04/13 01:23:23;;;;;;;6.37;4.57;;;;;;;12.02;74.86;97781.84;4997120;28;20225;-70
2022/04/13 01:25:50;;;;;;;6.90;4.30;;;;;;;11.93;76.00;97780.56;4996659;28;20218;-70
2022/04/13 01:28:17;;;;;;;6.30;4.40;;;;;;;11.88;75.87;97779.66;4996718;28;20258;-70
2022/04/13 01:30:44;;;;;;;6.27;4.87;;;;;;;11.85;75.18;97783.59;4996529;28;20210;-70
2022/04/13 01:33:11;;;;;;;6.60;4.93;;;;;;;11.82;76.24;97789.41;4996894;28;20214;-70
2022/04/13 01:35:38;;;;;;;6.33;4.00;;;;;;;11.81;75.76;97785.13;4996300;28;20218;-70
2022/04/13 01:38:05;;;;;;;6.17;4.17;;;;;;;11.84;75.87;97791.84;4996612;28;20237;-70
2022/04/13 01:40:32;;;;;;;6.43;4.20;;;;;;;11.77;76.88;97789.28;4996170;28;20582;-70
2022/04/13 01:42:58;;;;;;;5.63;4.00;;;;;;;11.73;77.03;97789.97;4996352;28;20215;-70
2022/04/13 01:45:25;;;;;;;5.63;4.17;;;;;;;11.69;77.57;97794.13;4996359;28;20203;-70
2022/04/13 01:47:51;;;;;;;6.80;4.33;;;;;;;11.61;78.13;97797.97;4996240;28;20570;-70
2022/04/13 01:50:20;;;;;;;4.87;4.00;;;;;;;11.86;75.55;97801.22;4996386;28;20231;-70
2022/04/13 01:52:48;;;;;;;6.43;4.00;;;;;;;11.84;76.05;97803.28;4996129;28;20228;-70
2022/04/13 01:55:15;;;;;;;4.30;3.50;;;;;;;12.07;74.30;97808.59;4996189;28;20213;-70
2022/04/13 01:57:42;;;;;;;5.93;3.70;;;;;;;12.12;75.00;97806.03;4996037;28;20241;-70
2022/04/13 02:00:12;;;;;;;5.50;4.03;;;;;;;11.99;75.75;97806.31;4996140;28;20219;-70
2022/04/13 02:02:38;;;;;;;4.80;3.90;;;;;;;11.82;76.42;97807.22;4995969;28;20211;-69
2022/04/13 02:05:05;;;;;;;4.57;3.17;;;;;;;11.87;75.23;97816.16;4995741;28;20681;-70
2022/04/13 02:07:32;;;;;;;6.30;3.50;;;;;;;11.81;76.04;97818.91;4995916;28;20232;-70
2022/04/13 02:09:58;;;;;;;5.20;3.30;;;;;;;11.91;74.69;97814.63;4996553;28;20224;-70
2022/04/13 02:12:25;;;;;;;5.50;3.40;;;;;;;11.68;76.98;97821.81;4995836;28;20238;-70
2022/04/13 02:14:51;;;;;;;6.40;3.50;;;;;;;11.55;78.25;97828.16;4995775;28;20217;-70
2022/04/13 02:17:19;;;;;;;4.63;3.60;;;;;;;11.46;79.00;97829.53;4995737;28;20224;-70
2022/04/13 02:19:46;;;;;;;3.63;3.07;;;;;;;11.37;79.03;97833.56;4995686;28;20255;-70
2022/04/13 02:22:12;;;;;;;4.57;3.10;;;;;;;11.25;79.60;97834.59;4995442;28;20227;-70
2022/04/13 02:24:39;;;;;;;4.80;3.30;;;;;;;11.20;80.31;97829.94;4994771;28;20214;-70
2022/04/13 02:27:07;;;;;;;5.03;3.60;;;;;;;11.18;80.67;97824.03;4995596;28;20327;-70
2022/04/13 02:29:34;;;;;;;4.10;3.30;;;;;;;11.07;81.06;97832.00;4995513;28;20217;-69
2022/04/13 02:32:00;;;;;;;5.50;3.57;;;;;;;11.00;81.59;97826.78;4995514;28;20652;-70
2022/04/13 02:34:27;;;;;;;5.40;3.50;;;;;;;10.92;82.04;97829.75;4995491;28;20207;-70
2022/04/13 02:36:53;;;;;;;6.60;4.03;;;;;;;10.93;81.66;97831.38;4995415;28;20249;-70
2022/04/13 02:39:19;;;;;;;4.90;3.40;;;;;;;10.92;82.11;97837.72;4995391;28;20577;-70
2022/04/13 02:41:46;;;;;;;5.57;3.50;;;;;;;10.90;82.48;97837.13;4995732;28;20533;-70
2022/04/13 02:44:12;;;;;;;4.53;3.40;;;;;;;10.88;82.71;97839.22;4995291;28;20239;-70
2022/04/13 02:46:39;;;;;;;5.77;4.00;;;;;;;10.83;82.91;97834.59;4994830;28;20580;-70
2022/04/13 02:49:05;;;;;;;4.90;3.60;;;;;;;10.77;82.86;97837.34;4995217;28;20207;-70
2022/04/13 02:51:32;;;;;;;6.50;3.67;;;;;;;10.89;82.05;97840.81;4994710;28;20234;-70
2022/04/13 02:53:58;;;;;;;8.27;4.20;;;;;;;10.83;82.27;97850.53;4995099;28;20211;-70
2022/04/13 02:56:24;;;;;;;6.13;3.73;;;;;;;10.81;83.21;97844.63;4994844;28;20203;-69
2022/04/13 02:58:51;;;;;;;5.90;3.93;;;;;;;10.82;82.91;97843.56;4994918;28;20234;-70
2022/04/13 03:01:17;;;;;;;6.90;4.23;;;;;;;10.81;82.62;97835.81;4994711;28;20210;-70
2022/04/13 03:03:43;;;;;;;6.23;4.30;;;;;;;10.81;82.80;97838.47;4994952;28;20230;-69
2022/04/13 03:06:10;;;;;;;4.43;4.03;;;;;;;10.82;82.71;97840.13;4994502;28;20692;-70
2022/04/13 03:08:36;;;;;;;7.13;3.80;;;;;;;10.77;83.42;97837.34;4994372;28;20238;-70
2022/04/13 03:11:03;;;;;;;5.77;4.13;;;;;;;10.78;83.22;97837.09;4994700;28;20234;-70
2022/04/13 03:13:29;;;;;;;5.20;4.00;;;;;;;10.72;83.32;97835.34;4994702;28;20234;-70
2022/04/13 03:15:56;;;;;;;5.47;4.27;;;;;;;10.66;83.95;97841.56;4994699;28;20215;-69
2022/04/13 03:18:22;;;;;;;6.70;4.60;;;;;;;10.60;84.40;97837.13;4994412;28;20231;-70
2022/04/13 03:20:49;;;;;;;7.33;4.47;;;;;;;10.52;85.29;97839.28;4995300;28;20219;-69
2022/04/13 03:23:15;;;;;;;6.80;4.57;;;;;;;10.53;84.61;97840.91;4994075;28;20607;-70
2022/04/13 03:25:42;;;;;;;6.67;4.43;;;;;;;10.49;85.48;97839.72;4994526;28;20217;-70
2022/04/13 03:28:08;;;;;;;7.50;4.03;;;;;;;10.46;86.29;97837.53;4994244;28;20227;-70
2022/04/13 03:30:35;;;;;;;5.90;4.53;;;;;;;10.41;86.51;97832.06;4994291;28;20203;-70
2022/04/13 03:33:01;;;;;;;7.87;4.60;;;;;;;10.38;86.27;97836.00;4993781;28;20702;-70
2022/04/13 03:35:27;;;;;;;6.80;4.50;;;;;;;10.36;86.22;97824.75;4993404;28;20298;-70
2022/04/13 03:37:54;;;;;;;7.37;4.50;;;;;;;10.35;85.72;97836.44;4993980;28;20706;-70
2022/04/13 03:40:23;;;;;;;8.17;4.30;;;;;;;10.35;86.04;97830.28;4994152;28;20302;-70
2022/04/13 03:42:49;;;;;;;6.37;4.07;;;;;;;10.41;84.65;97832.06;4994166;28;20208;-70
2022/04/13 03:45:16;;;;;;;6.23;4.63;;;;;;;10.42;85.17;97831.81;4993990;28;20203;-69
2022/04/13 03:47:43;;;;;;;7.37;4.47;;;;;;;10.40;84.80;97830.44;4993880;28;20227;-70
2022/04/13 03:50:10;;;;;;;5.13;4.37;;;;;;;10.42;85.61;97834.47;4994045;28;20215;-69
2022/04/13 03:52:37;;;;;;;4.87;4.30;;;;;;;10.39;85.47;97829.63;4993735;28;20741;-70
2022/04/13 03:55:07;;;;;;;6.03;4.30;;;;;;;10.40;85.14;97835.75;4993909;28;20577;-69
2022/04/13 03:57:34;;;;;;;4.70;3.83;;;;;;;10.39;84.61;97834.13;4994296;28;20223;-69
2022/04/13 04:00:00;;;;;;;5.87;4.10;;;;;;;10.39;84.09;97836.78;4993868;28;20217;-70
2022/04/13 04:02:27;;;;;;;9.20;3.77;;;;;;;10.36;83.81;97834.59;4993817;28;20217;-70
2022/04/13 04:04:53;;;;;;;8.13;3.90;;;;;;;10.27;85.27;97842.03;4993749;28;20207;-69
2022/04/13 04:07:19;;;;;;;6.10;4.10;;;;;;;10.26;84.91;97832.44;4993903;28;20318;-70
2022/04/13 04:09:46;;;;;;;6.03;3.90;;;;;;;10.29;84.29;97850.59;4993573;28;20230;-70
2022/04/13 04:12:12;;;;;;;6.30;4.23;;;;;;;10.26;84.85;97844.91;4993990;28;20263;-69
2022/04/13 04:14:39;;;;;;;6.37;4.20;;;;;;;10.20;86.22;97843.13;4993520;28;20573;-70
2022/04/13 04:17:05;;;;;;;9.17;4.40;;;;;;;10.15;86.31;97837.69;4993797;28;20223;-70
2022/04/13 04:19:31;;;;;;;8.60;3.80;;;;;;;10.14;86.21;97844.03;4993867;28;20207;-69
2022/04/13 04:21:58;;;;;;;5.33;4.00;;;;;;;10.11;85.93;97847.13;4993446;28;20199;-69
2022/04/13 04:24:26;;;;;;;8.80;3.97;;;;;;;10.13;85.65;97847.69;4993650;28;20266;-70
2022/04/13 04:26:52;;;;;;;6.73;4.03;;;;;;;10.08;86.56;97847.56;4993652;28;20223;-70
2022/04/13 04:29:19;;;;;;;6.60;3.70;;;;;;;10.02;87.26;97843.94;4993882;28;20207;-70
2022/04/13 04:31:51;;;;;;;5.10;3.90;;;;;;;10.01;86.88;97852.09;4993471;28;20562;-69
2022/04/13 04:34:19;;;;;;;8.20;4.10;;;;;;;9.98;87.55;97852.53;4993365;28;20230;-69
2022/04/13 04:36:46;;;;;;;10.73;4.27;;;;;;;9.97;87.35;97850.91;4993560;28;20230;-69
2022/04/13 04:39:13;;;;;;;7.23;4.10;;;;;;;9.96;87.22;97844.00;4993619;28;20208;-70
2022/04/13 04:41:40;;;;;;;7.43;4.00;;;;;;;9.97;87.31;97851.75;4992777;28;20673;-70
2022/04/13 04:44:07;;;;;;;6.93;3.60;;;;;;;9.99;87.34;97851.50;4993010;28;20219;-70
2022/04/13 04:46:33;;;;;;;6.37;3.70;;;;;;;9.98;87.52;97847.22;4994076;28;20211;-69
2022/04/13 04:49:00;;;;;;;7.57;4.00;;;;;;;9.95;87.52;97853.78;4996664;28;20677;-69
2022/04/13 04:51:26;;;;;;;4.63;3.60;;;;;;;10.02;86.90;97849.25;4996991;28;20203;-69
2022/04/13 04:53:52;;;;;;;6.23;3.83;;;;;;;10.03;86.20;97856.16;4996648;28;20560;-70
2022/04/13 04:56:19;;;;;;;7.13;3.43;;;;;;;10.06;85.83;97857.59;4996596;28;20218;-70
2022/04/13 04:58:45;;;;;;;4.87;3.50;;;;;;;10.07;86.82;97864.53;4996938;28;20565;-69
2022/04/13 05:01:12;;;;;;;6.67;3.93;;;;;;;10.05;86.23;97861.28;4996480;28;20207;-69
2022/04/13 05:03:38;;;;;;;5.83;3.70;;;;;;;10.09;86.23;97859.81;4996420;28;20203;-69
2022/04/13 05:06:04;;;;;;;6.47;3.70;;;;;;;10.18;85.29;97867.25;4996610;28;20203;-70
2022/04/13 05:08:31;;;;;;;5.03;3.70;;;;;;;10.21;85.51;97858.03;4996192;28;20239;-69
2022/04/13 05:10:57;;;;;;;5.20;3.43;;;;;;;10.23;85.52;97861.31;4996196;28;20207;-69
2022/04/13 05:13:24;;;;;;;5.47;3.83;;;;;;;10.30;84.36;97862.03;4996481;28;20238;-70
2022/04/13 05:15:50;;;;;;;4.03;3.50;;;;;;;10.41;83.98;97869.28;4996473;28;20208;-69
2022/04/13 05:18:16;;;;;;;3.73;3.30;;;;;;;10.47;83.56;97873.69;4996152;28;20231;-69
2022/04/13 05:20:43;;;;;;;5.67;3.60;;;;;;;10.53;82.48;97867.47;4996725;28;20217;-69
2022/04/13 05:23:09;;;;;;;9.73;4.10;;;;;;;10.52;82.91;97868.53;4996341;28;20538;-69
2022/04/13 05:25:35;;;;;;;6.83;3.90;;;;;;;10.61;83.09;97869.84;4995748;28;20666;-69
2022/04/13 05:28:01;;;;;;;6.57;3.97;;;;;;;10.67;81.59;97872.41;4996277;28;20231;-69
2022/04/13 05:30:28;;;;;;;6.77;4.20;;;;;;;10.72;81.21;97875.22;4995822;28;20210;-69
2022/04/13 05:32:58;;;;;;;7.10;4.60;;;;;;;10.78;80.62;97870.84;4994749;28;20255;-68
2022/04/13 05:35:28;;;;;;;4.93;4.13;;;;;;;10.84;80.46;97884.06;4995668;28;20298;-68
2022/04/13 05:37:56;;;;;;;5.07;4.20;;;;;;;10.85;80.36;97888.34;4996379;28;20232;-69
2022/04/13 05:40:24;;;;;;;7.13;4.70;;;;;;;10.90;79.59;97891.13;4995791;28;20692;-68
2022/04/13 05:42:50;;;;;;;7.90;5.03;;;;;;;11.00;79.51;97894.06;4996128;28;20215;-69
2022/04/13 05:45:17;;;;;;;8.20;4.30;;;;;;;11.04;78.87;97889.13;4996139;28;20212;-68
2022/04/13 05:47:44;;;;;;;6.93;4.60;;;;;;;11.14;78.69;97894.72;4995275;28;20231;-69
2022/04/13 05:50:12;;;;;;;6.77;4.50;;;;;;;11.20;77.67;97904.44;4995666;28;20283;-68
2022/04/13 05:52:39;;;;;;;7.93;4.57;;;;;;;11.28;78.01;97902.25;4994686;28;20683;-69
2022/04/13 05:57:50;;;;;;;7.07;4.70;;;;;;;11.49;77.82;97905.47;4984197;28;20596;-69
2022/04/13 06:00:19;;;;;;;8.17;4.70;;;;;;;11.52;77.74;97902.34;4995728;28;20294;-69
2022/04/13 06:02:49;;;;;;;7.57;4.70;;;;;;;11.49;76.94;97908.91;4994627;28;20702;-68
2022/04/13 06:05:21;;;;;;;7.77;4.73;;;;;;;11.59;77.29;97906.53;4995369;28;20208;-69
2022/04/13 06:08:01;;;;;;;7.80;4.70;;;;;;;11.59;75.91;97911.84;4994600;28;20235;-69
2022/04/13 06:10:30;;;;;;;6.73;4.60;;;;;;;11.63;75.79;97909.56;4992756;28;20212;-69
2022/04/13 06:15:59;;;;;;;5.80;4.63;;;;;;;11.70;76.09;97918.28;4992558;28;20652;-69
2022/04/13 06:18:26;;;;;;;5.57;4.70;;;;;;;11.68;76.62;97918.50;4995092;28;20558;-69
2022/04/13 06:20:52;;;;;;;10.27;4.70;;;;;;;11.69;75.74;97916.63;4994658;28;20716;-69
2022/04/13 06:23:29;;;;;;;9.77;4.77;;;;;;;11.81;75.17;97926.28;4994689;28;20207;-69
2022/04/13 06:26:06;;;;;;;5.87;4.70;;;;;;;11.89;75.85;97922.47;4995337;28;20248;-69
2022/04/13 06:28:42;;;;;;;5.73;4.80;;;;;;;12.08;75.01;97924.78;4995210;28;20282;-70
2022/04/13 06:31:22;;;;;;;6.30;4.17;;;;;;;12.15;74.82;97927.31;4994939;28;20259;-70
2022/04/13 06:40:58;;;;;;;6.90;4.17;;;;;;;12.63;72.94;97925.22;4986754;28;20220;-69
2022/04/13 06:46:46;;;;;;;8.27;4.00;;;;;;;12.67;73.07;97940.53;4994888;28;20285;-70
2022/04/13 06:49:51;;;;;;;5.97;4.20;;;;;;;12.82;72.63;97938.16;4994604;28;20296;-69
2022/04/13 06:58:56;;;;;;;4.83;4.07;;;;;;;13.14;71.19;97939.38;4877924;29;20315;-70
2022/04/13 07:05:25;;;;;;;8.43;4.53;;;;;;;13.31;70.21;97950.94;4926816;29;20584;-70
2022/04/13 07:08:46;;;;;;;6.57;4.30;;;;;;;13.46;69.25;97943.19;4953546;28;20232;-69
2022/04/13 07:11:31;;;;;;;7.70;4.13;;;;;;;13.42;69.33;97950.06;4895924;29;20258;-70
2022/04/13 07:14:19;;;;;;;5.53;4.30;;;;;;;13.55;68.73;97948.94;4896602;29;20682;-71
2022/04/13 07:17:15;;;;;;;6.50;4.30;;;;;;;13.64;68.94;97955.50;4954108;28;20283;-70
2022/04/13 07:29:14;;;;;;;7.87;3.97;;;;;;;13.99;66.94;97948.94;4898289;29;20213;-69
2022/04/13 07:31:41;;;;;;;5.30;4.30;;;;;;;14.62;65.83;97945.88;4933590;29;20219;-69
2022/04/13 07:34:07;;;;;;;8.77;4.93;;;;;;;14.53;65.64;97953.53;4962384;28;20281;-69
2022/04/13 07:36:40;;;;;;;5.77;4.60;;;;;;;14.83;64.10;97953.13;4993760;28;20211;-69
2022/04/13 07:43:15;;;;;;;;;;;;;;;;;;;;;
2022/04/13 07:52:20;;;;;;;7.97;4.87;;;;;;;15.51;60.53;97970.31;4956839;28;20697;-69
2022/04/13 07:58:20;;;;;;;6.87;4.60;;;;;;;15.70;59.70;97966.19;4914863;29;20237;-69
2022/04/13 08:01:56;;;;;;;7.53;4.30;;;;;;;15.76;59.14;97975.94;4944248;28;20224;-69
2022/04/13 08:16:58;;;;;;;9.53;5.43;;;;;;;15.74;59.18;97974.56;4816920;29;20224;-69
2022/04/13 08:22:47;;;;;;;5.17;4.67;;;;;;;16.45;56.35;97982.16;4840916;29;20711;-69
2022/04/13 08:25:38;;;;;;;9.57;5.03;;;;;;;16.07;57.65;97988.56;4844291;29;20551;-69
2022/04/13 08:28:17;;;;;;;11.10;4.77;;;;;;;16.40;55.75;97982.94;4843813;29;20317;-70
2022/04/13 08:33:32;;;;;;;9.00;4.63;;;;;;;16.75;55.14;97990.41;4841378;29;20739;-69
2022/04/13 08:36:45;;;;;;;7.43;4.20;;;;;;;16.68;56.75;97995.19;4843279;29;20217;-70
2022/04/13 08:39:21;;;;;;;7.97;4.70;;;;;;;16.79;56.13;97997.69;4859097;29;20212;-69
2022/04/13 08:45:14;;;;;;;6.87;3.90;;;;;;;16.86;55.62;98000.97;4898738;29;20206;-70
2022/04/13 09:00:46;;;;;;;9.17;3.93;;;;;;;17.87;52.90;97991.44;4946478;28;20223;-70
2022/04/13 09:04:15;;;;;;;6.87;4.53;;;;;;;18.04;51.78;97991.97;4978172;28;20199;-69
2022/04/13 09:16:54;;;;;;;5.83;3.00;;;;;;;18.66;44.70;97993.34;4821768;29;20236;-69
2022/04/13 09:23:06;;;;;;;5.27;3.43;;;;;;;19.00;40.32;97994.34;4843968;29;20188;-69
2022/04/13 09:26:14;;;;;;;5.33;2.57;;;;;;;19.21;39.63;97989.69;4898642;29;20296;-69
2022/04/13 09:28:59;;;;;;;5.43;3.63;;;;;;;19.12;40.41;97994.03;5054055;23;20297;-69
2022/04/13 09:45:03;;;;;;;;;;;;;;;;;;;;;
2022/04/13 09:50:51;;;;;;;5.97;2.77;;;;;;;19.46;43.42;97987.72;4814968;29;20262;-69
2022/04/13 09:53:19;;;;;;;6.73;3.00;;;;;;;19.03;42.81;97988.41;4969307;28;20235;-69
2022/04/13 09:55:50;;;;;;;9.33;2.87;;;;;;;19.01;42.95;97992.47;4976429;28;20252;-68
2022/04/13 09:58:19;;;;;;;7.27;2.90;;;;;;;19.25;45.36;97993.47;4976414;28;20322;-69
2022/04/13 10:00:52;;;;;;;8.20;3.10;;;;;;;19.97;42.60;97988.25;4976326;28;20219;-68
2022/04/13 10:03:20;;;;;;;6.03;3.43;;;;;;;20.08;43.30;97989.81;4976171;28;20184;-69
2022/04/13 10:05:50;;;;;;;8.07;3.80;;;;;;;20.16;44.37;97983.03;4976226;28;20218;-67
2022/04/13 10:11:08;;;;;;;5.93;3.07;;;;;;;20.08;40.76;97980.88;4973336;28;20215;-67
2022/04/13 10:13:40;;;;;;;6.47;3.03;;;;;;;20.27;41.35;97981.84;4974263;28;20223;-67
2022/04/13 10:16:14;;;;;;;4.53;2.90;;;;;;;20.34;40.96;97980.44;4975808;28;20263;-67
2022/04/13 10:19:05;;;;;;;7.20;3.23;;;;;;;20.33;41.62;97972.59;4975778;28;20232;-67
2022/04/13 10:22:08;;;;;;;6.27;3.37;;;;;;;20.31;42.51;97972.91;4974463;28;20663;-67
2022/04/13 10:24:56;;;;;;;9.67;3.57;;;;;;;20.19;42.05;97974.34;4973511;28;20282;-67
2022/04/13 10:27:33;;;;;;;5.43;3.27;;;;;;;19.87;43.10;97969.44;4974937;28;20228;-67
2022/04/13 10:30:37;;;;;;;6.17;3.30;;;;;;;19.59;43.51;97967.44;4975558;28;20254;-67
2022/04/13 10:36:02;;;;;;;6.73;2.87;;;;;;;20.27;43.66;97977.25;4973261;28;20286;-67
2022/04/13 10:38:37;;;;;;;9.30;3.43;;;;;;;20.69;42.74;97969.31;4975294;28;20271;-67
2022/04/13 10:41:24;;;;;;;6.07;2.70;;;;;;;20.60;40.89;97981.81;4974671;28;20208;-67
2022/04/13 10:43:52;;;;;;;5.97;2.70;;;;;;;20.78;40.68;97975.69;4974929;28;20193;-70
2022/04/13 10:46:22;;;;;;;4.80;2.80;;;;;;;20.42;39.95;97973.59;4975804;28;20208;-69
2022/04/13 10:49:09;;;;;;;5.60;2.20;;;;;;;20.04;39.75;97969.03;4975369;28;20204;-70
2022/04/13 10:52:00;;;;;;;4.30;2.30;;;;;;;20.17;39.73;97971.91;4974675;28;20278;-70
2022/04/13 10:54:34;;;;;;;7.40;2.80;;;;;;;20.64;39.42;97979.34;4975512;28;20216;-70
2022/04/13 10:57:08;;;;;;;8.43;2.30;;;;;;;20.26;39.40;97978.31;4971815;28;20590;-69
2022/04/13 10:59:52;;;;;;;6.60;2.70;;;;;;;20.77;38.65;97967.88;4975543;28;20681;-69
2022/04/13 11:29:40;;;;;;;3.50;1.90;;;;;;;21.28;36.13;97964.34;4803923;29;20329;-68
2022/04/13 11:35:49;;;;;;;;;;;;;;;;;;;;;
2022/04/13 11:49:23;;;;;;;5.17;2.00;;;;;;;21.43;37.41;97956.03;4970237;28;20611;-69
2022/04/13 12:01:47;;;;;;;4.50;2.17;;;;;;;21.49;37.90;97944.06;4913114;28;20288;-69
2022/04/13 12:04:14;;;;;;;6.10;2.20;;;;;;;21.81;36.72;97941.47;4974144;28;20195;-68
2022/04/13 12:06:49;;;;;;;4.10;1.97;;;;;;;21.94;37.63;97939.91;4973908;28;20232;-68
2022/04/13 12:12:04;;;;;;;5.70;2.00;;;;;;;21.81;35.99;97941.47;4974105;28;20203;-68
2022/04/13 12:15:17;;;;;;;5.00;2.30;;;;;;;21.64;35.94;97941.16;4973869;28;20228;-68
2022/04/13 12:18:21;;;;;;;4.47;2.13;;;;;;;21.21;36.46;97947.66;4937965;28;20318;-69
2022/04/13 12:24:44;;;;;;;4.07;1.90;;;;;;;22.00;35.41;97936.84;4901546;29;20197;-69
2022/04/13 12:27:14;;;;;;;5.33;1.60;;;;;;;21.96;34.87;97932.28;4914687;28;20234;-68
2022/04/13 12:30:09;;;;;;;3.67;1.87;;;;;;;21.74;34.21;97934.78;4974149;28;20204;-68
2022/04/13 12:36:23;;;;;;;3.28;1.40;;;;;;;21.90;34.70;97918.06;4974061;28;20204;-69
2022/04/13 12:45:18;;;;;;;6.18;1.85;;;;;;;21.88;34.45;97922.16;4973076;28;20196;-69
2022/04/13 12:55:19;;;;;;;10.55;2.78;;;;;;;22.16;35.14;97907.63;4914437;29;20209;-68
2022/04/13 12:58:13;;;;;;;3.67;1.80;;;;;;;21.88;35.05;97914.03;4914379;29;20578;-68
2022/04/13 13:01:33;;;;;;;5.00;1.85;;;;;;;21.96;34.00;97911.47;4914227;29;20191;-68
2022/04/13 13:04:43;;;;;;;4.63;1.90;;;;;;;22.08;34.96;97909.09;4895233;29;20279;-69
2022/04/13 13:07:13;;;;;;;5.80;2.20;;;;;;;22.42;36.07;97906.06;4897356;29;20259;-69
2022/04/13 13:09:57;;;;;;;2.97;1.90;;;;;;;22.60;35.15;97910.63;4955767;29;20196;-69
2022/04/13 13:16:37;;;;;;;4.10;1.98;;;;;;;22.76;37.13;97904.66;4898533;29;20194;-68
2022/04/13 13:19:39;;;;;;;5.47;2.40;;;;;;;22.43;34.10;97900.34;4898355;29;20571;-68
2022/04/13 13:25:58;;;;;;;7.35;2.53;;;;;;;22.61;35.18;97910.34;4892492;29;20591;-69
2022/04/13 13:29:18;;;;;;;;;;;;;;;;;;;;;
2022/04/13 13:32:00;;;;;;;7.03;2.17;;;;;;;22.13;35.17;97900.06;4916632;29;20609;-69
2022/04/13 13:38:10;;;;;;;6.65;2.05;;;;;;;22.59;35.71;97899.00;4914590;29;20328;-69
2022/04/13 13:41:26;;;;;;;4.25;2.28;;;;;;;22.63;35.77;97897.31;4976115;28;20219;-69
2022/04/13 13:43:57;;;;;;;7.05;2.50;;;;;;;22.93;34.63;97887.78;4975936;28;20208;-69
2022/04/13 13:46:25;;;;;;;4.85;2.40;;;;;;;22.80;35.89;97897.50;4976877;28;20212;-69
2022/04/13 13:52:12;;;;;;;5.85;2.00;;;;;;;22.98;34.68;97893.88;4967583;28;20218;-68
2022/04/13 13:54:50;;;;;;;4.72;2.58;;;;;;;22.82;34.29;97892.59;4976057;28;20235;-68
2022/04/13 13:57:16;;;;;;;10.00;2.35;;;;;;;23.07;36.28;97892.06;4975836;28;20315;-69
2022/04/13 13:59:46;;;;;;;5.60;2.38;;;;;;;22.96;35.44;97890.69;4976043;28;20300;-68
2022/04/13 14:02:12;;;;;;;3.47;1.92;;;;;;;22.94;34.45;97890.19;4976119;28;20212;-69
2022/04/13 14:04:38;;;;;;;5.57;2.30;;;;;;;23.06;35.71;97879.63;4976056;28;20208;-69
2022/04/13 14:07:11;;;;;;;4.75;2.05;;;;;;;22.59;35.03;97877.34;4975991;28;20307;-69
2022/04/13 14:09:41;;;;;;;6.65;2.10;;;;;;;22.67;35.78;97881.25;4975771;28;20758;-69
2022/04/13 14:12:11;;;;;;;7.82;2.30;;;;;;;22.61;34.81;97885.94;4975848;28;20681;-68
2022/04/13 14:14:41;;;;;;;4.15;2.33;;;;;;;22.86;34.76;97871.09;4976020;28;20318;-68
2022/04/13 14:17:24;;;;;;;;;;;;;;;;;;;;;
2022/04/13 14:19:58;;;;;;;6.05;2.10;;;;;;;23.16;34.87;97868.56;4972269;28;20284;-68
2022/04/13 14:22:56;;;;;;;7.38;1.88;;;;;;;23.32;33.91;97866.34;4975197;28;20215;-68
2022/04/13 14:25:30;;;;;;;6.25;2.22;;;;;;;23.15;33.74;97864.25;4975875;28;20204;-68
2022/04/13 14:27:59;;;;;;;4.35;2.05;;;;;;;22.93;34.26;97866.88;4975864;28;20226;-68
2022/04/13 14:30:27;;;;;;;6.53;2.25;;;;;;;23.12;34.15;97867.59;4975639;28;20216;-68
2022/04/13 14:32:58;;;;;;;4.45;2.08;;;;;;;23.14;33.86;97869.97;4975594;28;20259;-68
2022/04/13 14:35:29;;;;;;;4.10;1.88;;;;;;;23.31;33.18;97859.31;4975106;28;20271;-68
2022/04/13 14:37:59;;;;;;;5.85;2.13;;;;;;;23.00;33.83;97859.16;4974942;28;20317;-68
2022/04/13 14:40:28;;;;;;;7.15;2.38;;;;;;;23.28;34.22;97851.78;4974877;28;20302;-68
2022/04/13 14:42:55;;;;;;;8.48;2.40;;;;;;;23.33;33.80;97857.13;4975209;28;20599;-69
2022/04/13 14:45:22;;;;;;;5.38;2.10;;;;;;;23.40;34.03;97860.22;4975032;28;20211;-69
2022/04/13 14:47:49;;;;;;;4.13;1.88;;;;;;;23.28;32.82;97857.22;4974424;28;20234;-69
2022/04/13 14:50:22;;;;;;;7.18;2.05;;;;;;;23.21;32.78;97863.09;4975158;28;20207;-68
2022/04/13 14:52:57;;;;;;;4.60;1.83;;;;;;;23.28;32.42;97865.34;4975067;28;20624;-68
2022/04/13 14:55:24;;;;;;;8.57;2.35;;;;;;;23.00;33.07;97866.47;4975168;28;20212;-68
2022/04/13 14:57:50;;;;;;;5.65;2.40;;;;;;;23.18;33.58;97870.97;4974665;28;20753;-68
2022/04/13 15:00:20;;;;;;;5.05;2.20;;;;;;;23.42;33.03;97866.94;4974552;28;20401;-68
2022/04/13 15:02:56;;;;;;;6.57;2.00;;;;;;;23.39;32.38;97869.47;4975182;28;20270;-68
2022/04/13 15:05:23;;;;;;;2.85;1.67;;;;;;;23.47;32.89;97863.31;4974747;28;20648;-68
2022/04/13 15:07:49;;;;;;;6.18;1.90;;;;;;;23.46;31.93;97864.41;4974830;28;20234;-69
2022/04/13 15:10:16;;;;;;;5.10;2.17;;;;;;;23.44;31.82;97862.03;4974551;28;20204;-68
2022/04/13 15:12:42;;;;;;;5.60;2.15;;;;;;;23.44;31.81;97870.16;4974675;28;20219;-68
2022/04/13 15:15:13;;;;;;;5.45;1.90;;;;;;;23.41;31.14;97862.63;4974406;28;20292;-68
2022/04/13 15:17:39;;;;;;;7.45;1.80;;;;;;;23.51;31.69;97869.75;4974699;28;20242;-68
2022/04/13 15:20:07;;;;;;;4.20;1.90;;;;;;;23.59;31.53;97869.81;4974745;28;20215;-68
2022/04/13 15:22:33;;;;;;;7.95;2.45;;;;;;;23.48;31.23;97867.63;4974509;28;20247;-69
2022/04/13 15:25:00;;;;;;;9.50;1.92;;;;;;;23.61;31.38;97869.50;4974776;28;20204;-68
2022/04/13 15:27:26;;;;;;;6.00;2.00;;;;;;;23.62;30.54;97871.09;4974634;28;20230;-68
2022/04/13 15:29:52;;;;;;;5.15;1.98;;;;;;;23.59;31.14;97869.81;4973810;28;20671;-68
2022/04/13 15:32:19;;;;;;;5.05;2.00;;;;;;;23.54;29.93;97856.34;4974566;28;20218;-69
2022/04/13 15:34:46;;;;;;;5.30;2.20;;;;;;;23.79;29.69;97865.81;4974105;28;20230;-69